Grandview, New York
Current Conditions -  °F | °C
As of 6:56 PM on Saturday 22 Nov 2014 (Local Time) from KHPN Reporting Station
Overcast Overcast  
Wind Chill: 38°   Ceiling: 4800
Heat Index: 41°   Visibility: 10mi
Dew Point: 17°   Wind: 5mph
Humidity: 38%   Direction: NA
Pressure: 30.22"   Gusts: NA
Location:  41.0938°N, 73.9254°W
Report Text: KHPN 222356Z VRB04KT 10SM BKN048 OVC070 05/M08 A3022 RMK AO2 SLP240 60000 T00501083 10050 20033 56006
Loading
Personal Weather Stations






























Interactive Weather Map New forecast layout! Learn more

10-Day Weather Forecast

Advertisements
Track Severe Weather on mobile